createdAt,value
2018-07-01T00:04:27.360Z,43.30
2018-07-01T00:09:18.255Z,43.50
2018-07-01T00:14:09.170Z,43.40
2018-07-01T00:19:00.077Z,43.40
2018-07-01T00:23:51.740Z,43.50
2018-07-01T00:28:42.638Z,43.50
2018-07-01T00:33:33.544Z,43.50
2018-07-01T00:38:25.185Z,43.60
2018-07-01T00:43:16.828Z,43.70
2018-07-01T00:48:07.740Z,43.70
2018-07-01T00:52:58.648Z,43.70
2018-07-01T00:57:50.339Z,44.40
2018-07-01T01:02:41.244Z,44.40
2018-07-01T01:07:32.153Z,44.60
2018-07-01T01:12:23.161Z,44.50
2018-07-01T01:17:14.043Z,44.90
2018-07-01T01:22:04.928Z,45.10
2018-07-01T01:26:55.826Z,45.10
2018-07-01T01:31:46.741Z,45.00
2018-07-01T01:36:37.649Z,45.00
2018-07-01T01:41:28.554Z,44.90
2018-07-01T01:46:20.211Z,44.80
2018-07-01T01:51:11.133Z,44.80
2018-07-01T01:56:02.018Z,44.90
2018-07-01T02:00:53.669Z,45.00
2018-07-01T02:05:45.299Z,45.20
2018-07-01T02:10:37.672Z,45.30
2018-07-01T02:15:28.572Z,45.30
2018-07-01T02:20:20.206Z,45.20
2018-07-01T02:25:11.859Z,45.30
2018-07-01T02:30:02.778Z,45.30
2018-07-01T02:34:53.693Z,45.30
2018-07-01T02:39:44.608Z,45.30
2018-07-01T02:44:35.520Z,45.50
2018-07-01T02:49:27.155Z,45.50
2018-07-01T02:54:18.797Z,45.50
2018-07-01T02:59:09.705Z,45.30
2018-07-01T03:04:01.345Z,45.60
2018-07-01T03:08:52.988Z,45.60
2018-07-01T03:13:43.883Z,45.60
2018-07-01T03:18:35.512Z,45.80
2018-07-01T03:23:26.428Z,45.80
2018-07-01T03:28:17.342Z,45.90
2018-07-01T03:33:08.231Z,46.10
2018-07-01T03:37:59.136Z,46.60
2018-07-01T03:42:50.026Z,46.10
2018-07-01T03:47:40.932Z,46.30
2018-07-01T03:52:32.573Z,46.50
2018-07-01T03:57:24.228Z,46.50
2018-07-01T04:02:15.141Z,46.40
2018-07-01T04:07:06.024Z,46.50
2018-07-01T04:11:56.912Z,46.60
2018-07-01T04:16:47.817Z,47.20
2018-07-01T04:21:38.716Z,46.70
2018-07-01T04:26:29.612Z,46.70
2018-07-01T04:31:21.256Z,46.70
2018-07-01T04:36:12.880Z,46.70
2018-07-01T04:41:04.511Z,46.70
2018-07-01T04:45:56.145Z,46.60
2018-07-01T04:50:47.781Z,47.20
2018-07-01T04:55:39.412Z,47.40
2018-07-01T05:00:30.293Z,47.20
2018-07-01T05:05:21.181Z,47.70
2018-07-01T05:10:12.090Z,48.20
2018-07-01T05:15:02.992Z,47.80
2018-07-01T05:19:54.620Z,47.90
2018-07-01T05:24:46.261Z,48.10
2018-07-01T05:29:37.887Z,48.10
2018-07-01T05:34:28.776Z,48.10
2018-07-01T05:39:19.668Z,48.20
2018-07-01T05:44:10.555Z,48.40
2018-07-01T05:49:02.187Z,48.80
2018-07-01T05:53:53.824Z,48.90
2018-07-01T05:58:45.467Z,49.20
2018-07-01T06:03:37.104Z,49.10
2018-07-01T06:08:28.738Z,48.80
2018-07-01T06:13:20.372Z,48.80
2018-07-01T06:18:12.016Z,48.40
2018-07-01T06:23:03.653Z,48.50
2018-07-01T06:27:54.539Z,48.40
2018-07-01T06:32:45.492Z,48.50
2018-07-01T06:37:36.353Z,48.50
2018-07-01T06:42:27.247Z,48.40
2018-07-01T06:47:18.161Z,48.40
2018-07-01T06:52:09.051Z,48.20
2018-07-01T06:57:00.711Z,48.10
2018-07-01T07:01:51.617Z,48.00
2018-07-01T07:06:42.524Z,48.00
2018-07-01T07:11:34.184Z,48.00
2018-07-01T07:16:25.080Z,47.90
2018-07-01T07:21:16.831Z,48.20
2018-07-01T07:26:07.653Z,48.10
2018-07-01T07:30:58.536Z,48.50
2018-07-01T07:35:50.164Z,49.20
2018-07-01T07:40:41.051Z,49.00
2018-07-01T07:45:31.944Z,49.40
2018-07-01T07:50:22.845Z,49.40
2018-07-01T07:55:13.733Z,49.30
2018-07-01T08:00:04.615Z,49.00
2018-07-01T08:04:55.533Z,48.40
2018-07-01T08:09:46.425Z,48.00
2018-07-01T08:14:37.315Z,47.40
2018-07-01T08:19:28.957Z,46.40
2018-07-01T08:24:20.596Z,46.40
2018-07-01T08:29:12.231Z,46.30
2018-07-01T08:34:03.853Z,45.90
2018-07-01T08:38:54.761Z,45.40
2018-07-01T08:43:45.683Z,45.10
2018-07-01T08:48:36.581Z,44.50
2018-07-01T08:53:27.485Z,44.00
2018-07-01T08:58:18.375Z,44.00
2018-07-01T09:03:09.360Z,43.70
2018-07-01T09:08:00.248Z,43.30
2018-07-01T09:12:51.167Z,43.10
2018-07-01T09:17:42.060Z,42.90
2018-07-01T09:22:32.939Z,42.80
2018-07-01T09:27:24.598Z,42.70
2018-07-01T09:32:15.493Z,42.50
2018-07-01T09:37:07.119Z,42.60
2018-07-01T09:41:58.013Z,42.60
2018-07-01T09:46:48.908Z,42.70
2018-07-01T09:51:39.824Z,42.50
2018-07-01T09:56:30.734Z,42.40
2018-07-01T10:01:21.642Z,42.40
2018-07-01T10:06:12.536Z,42.20
2018-07-01T10:11:04.170Z,42.10
2018-07-01T10:15:55.825Z,41.70
2018-07-01T10:20:47.460Z,42.20
2018-07-01T10:25:38.356Z,41.50
2018-07-01T10:30:29.255Z,41.60
2018-07-01T10:35:20.151Z,42.10
2018-07-01T10:40:11.112Z,41.20
2018-07-01T10:45:01.953Z,40.70
2018-07-01T10:50:00.001Z,40.50
2018-07-01T10:54:50.911Z,40.10
2018-07-01T10:59:41.811Z,40.10
2018-07-01T11:04:32.712Z,39.80
2018-07-01T11:09:23.615Z,39.70
2018-07-01T11:14:14.526Z,39.60
2018-07-01T11:19:06.176Z,38.70
2018-07-01T11:23:57.080Z,38.70
2018-07-01T11:28:47.988Z,38.10
2018-07-01T11:33:39.615Z,38.30
2018-07-01T11:38:30.747Z,38.30
2018-07-01T11:43:22.393Z,38.20
2018-07-01T11:48:13.297Z,38.20
2018-07-01T11:53:04.935Z,37.80
2018-07-01T11:57:56.572Z,37.80
2018-07-01T12:02:48.232Z,37.80
2018-07-01T12:07:39.148Z,37.70
2018-07-01T12:12:30.040Z,37.60
2018-07-01T12:17:21.694Z,37.30
2018-07-01T12:22:12.667Z,37.30
2018-07-01T12:27:03.581Z,37.20
2018-07-01T12:31:54.520Z,37.00
2018-07-01T12:36:45.420Z,36.40
2018-07-01T12:41:36.342Z,35.40
2018-07-01T12:46:27.247Z,35.00
2018-07-01T12:51:18.155Z,34.90
2018-07-01T12:56:09.111Z,34.50
2018-07-01T13:01:00.020Z,34.50
2018-07-01T13:05:51.056Z,34.50
2018-07-01T13:10:42.003Z,34.70
2018-07-01T13:15:32.914Z,34.10
2018-07-01T13:20:24.539Z,34.10
2018-07-01T13:25:16.212Z,34.60
2018-07-01T13:30:07.811Z,34.70
2018-07-01T13:34:59.452Z,34.80
2018-07-01T13:39:51.093Z,35.20
2018-07-01T13:44:41.988Z,35.10
2018-07-01T13:49:32.888Z,35.20
2018-07-01T13:54:23.781Z,35.10
2018-07-01T13:59:14.692Z,35.00
2018-07-01T14:04:05.624Z,35.20
2018-07-01T14:08:56.557Z,35.20
2018-07-01T14:13:47.457Z,35.10
2018-07-01T14:18:38.364Z,35.40
2018-07-01T14:23:29.270Z,35.70
2018-07-01T14:28:20.176Z,36.10
2018-07-01T14:33:11.063Z,36.20
2018-07-01T14:38:01.951Z,36.50
2018-07-01T14:42:52.853Z,37.00
2018-07-01T14:47:43.752Z,37.70
2018-07-01T14:52:34.645Z,37.20
2018-07-01T14:57:26.291Z,36.90
2018-07-01T15:02:17.929Z,36.80
2018-07-01T15:07:09.573Z,36.80
2018-07-01T15:12:00.480Z,36.70
2018-07-01T15:16:52.143Z,37.30
2018-07-01T15:21:43.036Z,37.20
2018-07-01T15:26:34.668Z,37.50
2018-07-01T15:31:26.295Z,37.80
2018-07-01T15:36:17.215Z,37.70
2018-07-01T15:41:08.857Z,38.60
2018-07-01T15:46:00.505Z,38.70
2018-07-01T15:50:51.418Z,38.50
2018-07-01T15:55:43.041Z,38.80
2018-07-01T16:00:34.739Z,38.80
2018-07-01T16:05:25.624Z,38.70
2018-07-01T16:10:16.510Z,38.50
2018-07-01T16:15:08.207Z,38.60
2018-07-01T16:19:59.088Z,38.40
2018-07-01T16:24:49.972Z,38.30
2018-07-01T16:29:40.845Z,38.20
2018-07-01T16:34:31.735Z,38.10
2018-07-01T16:39:23.377Z,37.80
2018-07-01T16:44:14.274Z,37.80
2018-07-01T16:49:05.913Z,37.70
2018-07-01T16:53:57.557Z,37.40
2018-07-01T16:58:49.198Z,37.50
2018-07-01T17:03:40.092Z,37.40
2018-07-01T17:08:30.976Z,37.40
2018-07-01T17:13:22.628Z,37.30
2018-07-01T17:18:13.593Z,37.30
2018-07-01T17:23:04.484Z,37.10
2018-07-01T17:27:55.385Z,37.00
2018-07-01T17:38:09.877Z,36.80
2018-07-01T17:43:00.807Z,36.50
2018-07-01T17:47:51.696Z,36.60
2018-07-01T17:52:42.601Z,36.70
2018-07-01T17:57:33.505Z,36.70
2018-07-01T18:02:24.405Z,37.00
2018-07-01T18:07:16.081Z,36.70
2018-07-01T18:12:06.979Z,36.70
2018-07-01T18:16:57.886Z,37.10
2018-07-01T18:22:04.614Z,37.50
2018-07-01T18:26:39.774Z,37.60
2018-07-01T18:31:31.410Z,37.50
2018-07-01T18:36:22.264Z,37.50
2018-07-01T18:41:13.903Z,37.70
2018-07-01T18:46:05.547Z,37.80
2018-07-01T18:50:57.191Z,38.10
2018-07-01T18:55:48.106Z,38.10
2018-07-01T19:00:39.006Z,38.20
2018-07-01T19:05:30.652Z,38.70
2018-07-01T19:10:22.296Z,38.70
2018-07-01T19:15:13.204Z,38.60
2018-07-01T19:20:04.840Z,38.80
2018-07-01T19:25:03.524Z,39.00
2018-07-01T19:29:55.164Z,39.10
2018-07-01T19:34:46.814Z,38.90
2018-07-01T19:39:38.470Z,39.00
2018-07-01T19:44:29.368Z,39.00
2018-07-01T19:49:21.095Z,39.20
2018-07-01T19:54:11.940Z,39.10
2018-07-01T19:59:02.832Z,39.30
2018-07-01T20:03:54.467Z,39.40
2018-07-01T20:08:46.117Z,39.50
2018-07-01T20:13:37.017Z,39.50
2018-07-01T20:18:28.710Z,39.60
2018-07-01T20:23:19.589Z,39.60
2018-07-01T20:28:10.509Z,39.60
2018-07-01T20:33:01.427Z,39.70
2018-07-01T20:37:52.332Z,39.80
2018-07-01T20:42:43.980Z,39.90
2018-07-01T20:47:34.882Z,39.90
2018-07-01T20:52:26.529Z,40.10
2018-07-01T20:57:18.159Z,40.20
2018-07-01T21:02:09.810Z,40.40
2018-07-01T21:07:00.716Z,40.40
2018-07-01T21:11:52.403Z,40.40
2018-07-01T21:16:43.268Z,40.40
2018-07-01T21:21:34.899Z,40.70
2018-07-01T21:26:26.562Z,40.70
2018-07-01T21:31:17.469Z,40.70
2018-07-01T21:36:08.363Z,40.80
2018-07-01T21:41:00.012Z,41.20
2018-07-01T21:45:50.928Z,41.20
2018-07-01T21:50:41.837Z,41.10
2018-07-01T21:55:33.505Z,41.20
2018-07-01T22:00:24.425Z,41.20
2018-07-01T22:05:15.335Z,41.20
2018-07-01T22:10:06.250Z,41.50
2018-07-01T22:15:09.617Z,41.40
2018-07-01T22:20:00.620Z,41.60
2018-07-01T22:24:51.531Z,41.60
2018-07-01T22:29:42.436Z,42.00
2018-07-01T22:34:33.356Z,41.80
2018-07-01T22:39:24.263Z,42.00
2018-07-01T22:44:15.184Z,42.00
2018-07-01T22:49:06.094Z,42.20
2018-07-01T22:53:57.008Z,42.40
2018-07-01T22:58:47.948Z,42.40
2018-07-01T23:03:38.900Z,42.60
2018-07-01T23:08:29.812Z,42.50
2018-07-01T23:13:20.724Z,42.60
2018-07-01T23:18:11.663Z,42.60
2018-07-01T23:23:02.575Z,42.70
2018-07-01T23:27:53.488Z,42.90
2018-07-01T23:32:44.406Z,43.00
2018-07-01T23:37:35.317Z,43.10
2018-07-01T23:42:26.227Z,43.10
2018-07-01T23:47:17.145Z,43.20
2018-07-01T23:52:08.087Z,43.60
2018-07-01T23:56:59.026Z,43.60
